EBCI - Charleroi/Gosselies, Belgium
Distance de la station: NE 18km
Mise à jour: 23/08/2019 21:20
clair
clair
 Wind from NE
Vent: NE 11 km/h
Température: 21°C
Point de rosée: 13°C
Humidité: 60%
Baromètre: 1023 hPa
Résumé: clair
Visibilité: greater than 10 km
2019/08/23 19:20 EBCI 231920Z 04006KT CAVOK 21/13 Q1023 NOSIG
EBFS - Florennes, Belgium
Distance de la station: ESE 31km
Mise à jour: 23/08/2019 21:25
nuageux
nuageux
 Wind from NE
Vent: NE 7 km/h
Température: 21°C
Point de rosée: 13°C
Humidité: 60%
Baromètre: 1023 hPa
Ciel: nuageux
Visibilité: 10 km
Détails du ciel: partiellement nuageux 4572 m
nuageux 6706 m
2019/08/23 19:25 EBFS 231925Z AUTO 05004KT 9999 SCT150/// BKN220/// 21/13 Q1023 BLU
EBCV - Chievres, Belgium
Distance de la station: NO 40km
Mise à jour: 23/08/2019 21:25
clair
clair
 Wind from NE
Vent: NE 7 km/h
Température: 20°C
Point de rosée: 14°C
Humidité: 69%
Baromètre: 1023 hPa
Ciel: clair
Visibilité: 10 km
2019/08/23 19:25 EBCV 231925Z AUTO 05004KT 9999 NCD 20/14 Q1023 BLU
 
EBBE - Beauvechain, Belgium
Distance de la station: NE 57km
Mise à jour: 23/08/2019 21:25
clair
clair
 Wind from varies
Vent: varies 4 km/h
Température: 21°C
Point de rosée: 13°C
Humidité: 60%
Baromètre: 1023 hPa
Ciel: clair
Visibilité: 10 km
2019/08/23 19:25 EBBE 231925Z AUTO VRB02KT 9999 NCD 21/13 Q1023 BLU
EBBR - Brussels National, Belgium
Distance de la station: NNE 63km
Mise à jour: 23/08/2019 21:20
clair
clair
 Wind from ENE
Vent: ENE 6 km/h
Température: 22°C
Point de rosée: 12°C
Humidité: 53%
Baromètre: 1023 hPa
Résumé: clair
Visibilité: greater than 10 km
2019/08/23 19:20 EBBR 231920Z 07003KT CAVOK 22/12 Q1023 NOSIG
LFQI - Cambrai/Epinoy, France
Distance de la station: O 82km
Mise à jour: 29/06/2012 12:30
NOT Current

 Wind from SO
Vent: SO 17 km/h
Température: 18°C
Point de rosée: 14°C
Humidité: 78%
Baromètre: 1009 hPa
2012/06/29 10:30 LFQI 291030Z AUTO 22009KT //// // ///////// 18/14 Q1009
 
LFQQ - Lille/Lesquin, France
Distance de la station: ONO 86km
Mise à jour: 23/08/2019 21:30
clair
clair
 Wind from NNE
Vent: NNE 11 km/h
Température: 23°C
Point de rosée: 13°C
Humidité: 53%
Baromètre: 1022 hPa
Résumé: clair
Visibilité: greater than 10 km
2019/08/23 19:30 LFQQ 231930Z AUTO 03006KT CAVOK 23/13 Q1022 NOSIG
EBLG - Bierset/Liege, Belgium
Distance de la station: ENE 89km
Mise à jour: 23/08/2019 21:20
clair
clair
 Wind from NE
Vent: NE 11 km/h
Température: 20°C
Point de rosée: 11°C
Humidité: 56%
Baromètre: 1023 hPa
Résumé: clair
Visibilité: greater than 10 km
2019/08/23 19:20 EBLG 231920Z 04006KT CAVOK 20/11 Q1023 NOSIG
EBDT - Schaffen, Belgium
Distance de la station: NE 93km
Mise à jour: 23/08/2019 21:25
clair
clair
 Wind from NE
Vent: NE 7 km/h
Température: 22°C
Point de rosée: 12°C
Humidité: 53%
Baromètre: 1023 hPa
Ciel: clair
Visibilité: 10 km
2019/08/23 19:25 EBDT 231925Z AUTO 05004KT 9999 NCD 22/12 Q1023 BLU
 
EBAW - Antwerp/Deurne, Belgium
Distance de la station: N 96km
Mise à jour: 23/08/2019 21:20
clair
clair
 Wind from NE
Vent: NE 9 km/h
Température: 22°C
Point de rosée: 13°C
Humidité: 57%
Baromètre: 1023 hPa
Résumé: clair
Visibilité: greater than 10 km
2019/08/23 19:20 EBAW 231920Z 05005KT CAVOK 22/13 Q1023 NOSIG
LFAQ - Bray, France
Distance de la station: OSO 119km
Mise à jour: 23/08/2019 21:30
clair
clair
 Wind from NE
Vent: NE 7 km/h
Température: 20°C
Point de rosée: 12°C
Humidité: 60%
Baromètre: 1022 hPa
Résumé: clair
Visibilité: greater than 10 km
2019/08/23 19:30 LFAQ 231930Z AUTO 05004KT CAVOK 20/12 Q1022
LFSR - Reims/Champagne, France
Distance de la station: S 120km
Mise à jour: 16/04/2012 09:00
NOT Current
partiellement nuageux
partiellement nuageux
 Wind from N
Vent: N 17 km/h
Température: 4°C
Température ressentie: 0°C
Point de rosée: 0°C
Humidité: 75%
Baromètre: 1022 hPa
Ciel: partiellement nuageux
Visibilité: 10 km
2012/04/16 07:00 LFSR 160700Z AUTO 01009KT 340V070 9999 NSC 04/00 Q1022
 
EHWO - Woensdrecht, Netherlands
Distance de la station: N 122km
Mise à jour: 23/08/2019 21:25
nuageux
nuageux
 Wind from ENE
Vent: ENE 7 km/h
Température: 20°C
Point de rosée: 13°C
Humidité: 64%
Baromètre: 1022 hPa
Ciel: nuageux
Visibilité: 10 km
Détails du ciel: nuageux 8839 m
nuageux 10668 m
2019/08/23 19:25 EHWO 231925Z AUTO 07004KT 010V070 9999 BKN290 BKN350 20/13 Q1022 BLU
EHBK - Zuid-Limburg, Netherlands
Distance de la station: ENE 123km
Mise à jour: 23/08/2019 21:25
partiellement nuageux
partiellement nuageux
 Wind from NE
Vent: NE 13 km/h
Température: 21°C
Point de rosée: 13°C
Humidité: 60%
Baromètre: 1023 hPa
Ciel: partiellement nuageux
Visibilité: 10 km
2019/08/23 19:25 EHBK 231925Z AUTO 05007KT 9999 NSC 21/13 Q1023 NOSIG
EBBL - Kleine-Brogel, Belgium
Distance de la station: NE 124km
Mise à jour: 23/08/2019 21:25
clair
clair
 Wind from NNE
Vent: NNE 6 km/h
Température: 20°C
Point de rosée: 12°C
Humidité: 60%
Baromètre: 1023 hPa
Ciel: clair
Visibilité: 10 km
2019/08/23 19:25 EBBL 231925Z AUTO 03003KT 9999 NCD 20/12 Q1023 BLU
 
EBLB - Elsenborn, Belgium
Distance de la station: E 135km
Mise à jour: 23/08/2019 21:25

 Wind from varies
Vent: varies 4 km/h
2019/08/23 19:25 EBLB 231925Z AUTO VRB02KT //// /// ///// Q////
EBOS - Oostende Airport, Belgium
Distance de la station: NO 136km
Mise à jour: 23/08/2019 21:20
clair
clair
 Wind from NE
Vent: NE 13 km/h
Température: 19°C
Point de rosée: 14°C
Humidité: 73%
Baromètre: 1023 hPa
Résumé: clair
Visibilité: greater than 10 km
2019/08/23 19:20 EBOS 231920Z 05007KT CAVOK 19/14 Q1023 NOSIG
EBFN - Koksijde, Belgium
Distance de la station: NO 140km
Mise à jour: 23/08/2019 21:25
clair
clair
 Wind from NNE
Vent: NNE 7 km/h
Température: 17°C
Point de rosée: 14°C
Humidité: 83%
Baromètre: 1023 hPa
Ciel: clair
Visibilité: 8 km
2019/08/23 19:25 EBFN 231925Z AUTO 03004KT 8000 NCD 17/14 Q1023 BLU
 
ETNG - Geilenkirchen, Germany
Distance de la station: ENE 142km
Mise à jour: 23/08/2019 19:50
NOT Current
clair
clair
 Wind from NNE
Vent: NNE 11 km/h
Température: 25°C
Point de rosée: 12°C
Humidité: 44%
Baromètre: 1023 hPa
Résumé: clair
Visibilité: greater than 10 km
2019/08/23 17:50 ETNG 231750Z 03006KT CAVOK 25/12 Q1023 NOSIG
EHGR - Gilze-Rijen, Netherlands
Distance de la station: NNE 143km
Mise à jour: 23/08/2019 21:25
clair
clair
 Wind from NNE
Vent: NNE 7 km/h
Température: 20°C
Point de rosée: 14°C
Humidité: 69%
Baromètre: 1023 hPa
Ciel: clair
Visibilité: 10 km
2019/08/23 19:25 EHGR 231925Z AUTO 02004KT 340V050 9999 NCD 20/14 Q1023 BLU
EHEH - Eindhoven, Netherlands
Distance de la station: NNE 147km
Mise à jour: 23/08/2019 21:25
couvert
couvert
 Wind from NE
Vent: NE 11 km/h
Température: 20°C
Point de rosée: 13°C
Humidité: 64%
Baromètre: 1023 hPa
Ciel: couvert
Visibilité: 10 km
Détails du ciel: couvert 8839 m
2019/08/23 19:25 EHEH 231925Z AUTO 04006KT 330V070 9999 OVC290 20/13 Q1023 BLU 03005KT CAVOK
 
ELLX - Luxembourg, Luxembourg
Distance de la station: ESE 162km
Mise à jour: 23/08/2019 21:20
clair
clair
 Wind from ENE
Vent: ENE 11 km/h
Température: 24°C
Point de rosée: 8°C
Humidité: 36%
Baromètre: 1023 hPa
Résumé: clair
Visibilité: greater than 10 km
2019/08/23 19:20 ELLX 231920Z 07006KT CAVOK 24/08 Q1023 NOSIG
EHVK - Volkel, Netherlands
Distance de la station: NE 174km
Mise à jour: 23/08/2019 21:25
couvert
couvert
 Wind from NNE
Vent: NNE 7 km/h
Température: 20°C
Point de rosée: 13°C
Humidité: 64%
Baromètre: 1023 hPa
Ciel: couvert
Visibilité: 10 km
Détails du ciel: couvert 8839 m
2019/08/23 19:25 EHVK 231925Z AUTO 03004KT 9999 OVC290 20/13 Q1023 BLU
LFOK - Chalons/Vatry, France
Distance de la station: S 174km
Mise à jour: 23/08/2019 21:30
clair
clair
 Wind from NE
Vent: NE 13 km/h
Température: 22°C
Point de rosée: 11°C
Humidité: 50%
Baromètre: 1021 hPa
Résumé: clair
Visibilité: greater than 10 km
2019/08/23 19:30 LFOK 231930Z AUTO 05007KT CAVOK 22/11 Q1021 NOSIG
Script from Saratoga-Weather.org